sensor_id;sensor_type;location;lat;lon;timestamp;temperature;humidity
14154;DHT22;7157;53.144;7.570;2023-04-12T00:05:06;7.87;72.22
14154;DHT22;7157;53.144;7.570;2023-04-12T00:15:10;8.06;70.74
14154;DHT22;7157;53.144;7.570;2023-04-12T00:25:14;7.94;71.08
14154;DHT22;7157;53.144;7.570;2023-04-12T00:35:17;7.89;70.92
14154;DHT22;7157;53.144;7.570;2023-04-12T00:45:21;8.02;70.87
14154;DHT22;7157;53.144;7.570;2023-04-12T00:55:27;8.14;70.32
14154;DHT22;7157;53.144;7.570;2023-04-12T01:05:34;8.07;70.99
14154;DHT22;7157;53.144;7.570;2023-04-12T01:15:44;8.31;70.02
14154;DHT22;7157;53.144;7.570;2023-04-12T01:26:09;8.28;70.55
14154;DHT22;7157;53.144;7.570;2023-04-12T01:36:17;8.39;70.65
14154;DHT22;7157;53.144;7.570;2023-04-12T01:46:22;8.38;71.43
14154;DHT22;7157;53.144;7.570;2023-04-12T01:56:29;8.70;70.92
14154;DHT22;7157;53.144;7.570;2023-04-12T02:06:33;8.53;72.29
14154;DHT22;7157;53.144;7.570;2023-04-12T02:16:37;8.55;72.93
14154;DHT22;7157;53.144;7.570;2023-04-12T02:26:42;8.68;72.44
14154;DHT22;7157;53.144;7.570;2023-04-12T02:36:47;8.70;72.64
14154;DHT22;7157;53.144;7.570;2023-04-12T02:46:50;8.83;72.15
14154;DHT22;7157;53.144;7.570;2023-04-12T02:56:54;8.71;73.16
14154;DHT22;7157;53.144;7.570;2023-04-12T03:06:56;8.50;74.60
14154;DHT22;7157;53.144;7.570;2023-04-12T03:17:00;8.44;75.46
14154;DHT22;7157;53.144;7.570;2023-04-12T03:27:03;8.37;76.18
14154;DHT22;7157;53.144;7.570;2023-04-12T03:37:08;8.17;77.98
14154;DHT22;7157;53.144;7.570;2023-04-12T03:47:11;8.13;78.27
14154;DHT22;7157;53.144;7.570;2023-04-12T03:57:15;8.24;77.98
14154;DHT22;7157;53.144;7.570;2023-04-12T04:07:18;8.42;77.50
14154;DHT22;7157;53.144;7.570;2023-04-12T04:17:23;8.44;78.21
14154;DHT22;7157;53.144;7.570;2023-04-12T04:27:27;8.68;77.11
14154;DHT22;7157;53.144;7.570;2023-04-12T04:37:32;8.56;78.27
14154;DHT22;7157;53.144;7.570;2023-04-12T04:47:35;8.66;78.24
14154;DHT22;7157;53.144;7.570;2023-04-12T04:57:39;8.90;77.74
14154;DHT22;7157;53.144;7.570;2023-04-12T05:07:42;9.29;76.50
14154;DHT22;7157;53.144;7.570;2023-04-12T05:17:46;9.31;78.21
14154;DHT22;7157;53.144;7.570;2023-04-12T05:27:50;9.06;81.79
14154;DHT22;7157;53.144;7.570;2023-04-12T05:37:54;9.12;83.18
14154;DHT22;7157;53.144;7.570;2023-04-12T05:47:57;9.16;84.42
14154;DHT22;7157;53.144;7.570;2023-04-12T05:58:01;9.20;85.32
14154;DHT22;7157;53.144;7.570;2023-04-12T06:08:04;9.45;85.10
14154;DHT22;7157;53.144;7.570;2023-04-12T06:18:08;9.91;84.55
14154;DHT22;7157;53.144;7.570;2023-04-12T06:28:13;9.80;86.74
14154;DHT22;7157;53.144;7.570;2023-04-12T06:38:17;9.68;88.80
14154;DHT22;7157;53.144;7.570;2023-04-12T06:48:20;9.94;88.12
14154;DHT22;7157;53.144;7.570;2023-04-12T06:58:24;10.00;89.35
14154;DHT22;7157;53.144;7.570;2023-04-12T07:08:27;10.07;88.99
14154;DHT22;7157;53.144;7.570;2023-04-12T07:18:32;10.04;90.24
14154;DHT22;7157;53.144;7.570;2023-04-12T07:28:35;9.85;91.38
14154;DHT22;7157;53.144;7.570;2023-04-12T07:38:41;9.88;91.18
14154;DHT22;7157;53.144;7.570;2023-04-12T07:48:43;9.83;92.21
14154;DHT22;7157;53.144;7.570;2023-04-12T07:58:47;9.83;93.59
14154;DHT22;7157;53.144;7.570;2023-04-12T08:08:50;9.89;93.46
14154;DHT22;7157;53.144;7.570;2023-04-12T08:18:55;9.81;95.02
14154;DHT22;7157;53.144;7.570;2023-04-12T08:28:58;10.06;94.69
14154;DHT22;7157;53.144;7.570;2023-04-12T08:39:02;10.00;94.95
14154;DHT22;7157;53.144;7.570;2023-04-12T08:49:05;10.12;94.33
14154;DHT22;7157;53.144;7.570;2023-04-12T08:59:09;9.93;95.33
14154;DHT22;7157;53.144;7.570;2023-04-12T09:09:12;10.06;96.20
14154;DHT22;7157;53.144;7.570;2023-04-12T09:19:30;10.15;95.64
14154;DHT22;7157;53.144;7.570;2023-04-12T09:29:32;10.01;97.86
14154;DHT22;7157;53.144;7.570;2023-04-12T09:39:37;9.41;99.71
14154;DHT22;7157;53.144;7.570;2023-04-12T09:49:42;9.44;101.60
14154;DHT22;7157;53.144;7.570;2023-04-12T09:59:48;9.55;101.77
14154;DHT22;7157;53.144;7.570;2023-04-12T10:09:51;9.72;100.70
14154;DHT22;7157;53.144;7.570;2023-04-12T10:19:56;9.62;101.65
14154;DHT22;7157;53.144;7.570;2023-04-12T10:30:17;9.70;102.19
14154;DHT22;7157;53.144;7.570;2023-04-12T10:40:21;9.83;102.24
14154;DHT22;7157;53.144;7.570;2023-04-12T10:50:26;10.09;101.78
14154;DHT22;7157;53.144;7.570;2023-04-12T11:11:18;10.97;98.67
14154;DHT22;7157;53.144;7.570;2023-04-12T11:21:23;11.32;98.59
14154;DHT22;7157;53.144;7.570;2023-04-12T11:31:28;13.03;92.79
14154;DHT22;7157;53.144;7.570;2023-04-12T11:41:30;13.58;92.79
14154;DHT22;7157;53.144;7.570;2023-04-12T11:51:34;13.64;90.98
14154;DHT22;7157;53.144;7.570;2023-04-12T12:01:37;13.11;89.08
14154;DHT22;7157;53.144;7.570;2023-04-12T12:11:42;14.19;86.75
14154;DHT22;7157;53.144;7.570;2023-04-12T12:21:45;13.45;87.08
14154;DHT22;7157;53.144;7.570;2023-04-12T12:31:49;13.98;84.07
14154;DHT22;7157;53.144;7.570;2023-04-12T12:41:53;15.13;81.13
14154;DHT22;7157;53.144;7.570;2023-04-12T12:51:57;15.53;77.43
14154;DHT22;7157;53.144;7.570;2023-04-12T13:02:00;14.70;78.84
14154;DHT22;7157;53.144;7.570;2023-04-12T13:12:05;17.10;73.01
14154;DHT22;7157;53.144;7.570;2023-04-12T13:22:07;18.32;63.20
14154;DHT22;7157;53.144;7.570;2023-04-12T13:32:11;17.04;64.61
14154;DHT22;7157;53.144;7.570;2023-04-12T13:42:14;17.08;64.27
14154;DHT22;7157;53.144;7.570;2023-04-12T13:52:18;16.88;60.41
14154;DHT22;7157;53.144;7.570;2023-04-12T14:02:21;20.49;49.54
14154;DHT22;7157;53.144;7.570;2023-04-12T14:12:25;16.96;58.08
14154;DHT22;7157;53.144;7.570;2023-04-12T14:22:28;18.50;55.19
14154;DHT22;7157;53.144;7.570;2023-04-12T14:32:32;17.55;53.65
14154;DHT22;7157;53.144;7.570;2023-04-12T14:42:35;15.46;59.83
14154;DHT22;7157;53.144;7.570;2023-04-12T14:52:39;13.26;63.50
14154;DHT22;7157;53.144;7.570;2023-04-12T15:02:42;9.46;86.09
14154;DHT22;7157;53.144;7.570;2023-04-12T15:12:48;8.68;91.34
14154;DHT22;7157;53.144;7.570;2023-04-12T15:22:51;9.57;96.11
14154;DHT22;7157;53.144;7.570;2023-04-12T15:32:55;10.51;95.58
14154;DHT22;7157;53.144;7.570;2023-04-12T15:42:58;10.60;95.23
14154;DHT22;7157;53.144;7.570;2023-04-12T15:53:02;10.66;97.28
14154;DHT22;7157;53.144;7.570;2023-04-12T16:03:05;10.67;97.39
14154;DHT22;7157;53.144;7.570;2023-04-12T16:13:11;10.53;98.70
14154;DHT22;7157;53.144;7.570;2023-04-12T16:23:14;10.39;99.26
14154;DHT22;7157;53.144;7.570;2023-04-12T16:33:18;10.53;99.53
14154;DHT22;7157;53.144;7.570;2023-04-12T16:43:20;10.56;99.51
14154;DHT22;7157;53.144;7.570;2023-04-12T16:53:25;10.42;100.40
14154;DHT22;7157;53.144;7.570;2023-04-12T17:03:27;10.24;100.50
14154;DHT22;7157;53.144;7.570;2023-04-12T17:13:32;10.34;98.35
14154;DHT22;7157;53.144;7.570;2023-04-12T17:23:34;10.36;97.55
14154;DHT22;7157;53.144;7.570;2023-04-12T17:33:39;10.03;96.21
14154;DHT22;7157;53.144;7.570;2023-04-12T17:43:44;9.88;98.20
14154;DHT22;7157;53.144;7.570;2023-04-12T17:53:48;10.03;95.32
14154;DHT22;7157;53.144;7.570;2023-04-12T18:03:51;9.83;96.38
14154;DHT22;7157;53.144;7.570;2023-04-12T18:13:56;9.75;97.52
14154;DHT22;7157;53.144;7.570;2023-04-12T18:23:59;9.48;97.81
14154;DHT22;7157;53.144;7.570;2023-04-12T18:34:04;9.25;97.84
14154;DHT22;7157;53.144;7.570;2023-04-12T18:44:06;9.09;98.51
14154;DHT22;7157;53.144;7.570;2023-04-12T18:54:12;9.07;98.75
14154;DHT22;7157;53.144;7.570;2023-04-12T19:04:17;9.19;99.42
14154;DHT22;7157;53.144;7.570;2023-04-12T19:14:22;9.18;99.45
14154;DHT22;7157;53.144;7.570;2023-04-12T19:24:25;9.14;99.30
14154;DHT22;7157;53.144;7.570;2023-04-12T19:34:29;8.97;98.25
14154;DHT22;7157;53.144;7.570;2023-04-12T19:44:32;8.82;99.63
14154;DHT22;7157;53.144;7.570;2023-04-12T19:54:36;8.77;99.91
14154;DHT22;7157;53.144;7.570;2023-04-12T20:04:39;8.58;100.51
14154;DHT22;7157;53.144;7.570;2023-04-12T20:14:44;8.38;100.05
14154;DHT22;7157;53.144;7.570;2023-04-12T20:24:47;8.21;100.42
14154;DHT22;7157;53.144;7.570;2023-04-12T20:34:51;8.06;100.60
14154;DHT22;7157;53.144;7.570;2023-04-12T20:44:54;7.94;100.51
14154;DHT22;7157;53.144;7.570;2023-04-12T20:54:58;7.74;101.03
14154;DHT22;7157;53.144;7.570;2023-04-12T21:05:01;7.56;101.09
14154;DHT22;7157;53.144;7.570;2023-04-12T21:15:06;7.49;100.68
14154;DHT22;7157;53.144;7.570;2023-04-12T21:25:13;7.19;100.35
14154;DHT22;7157;53.144;7.570;2023-04-12T21:35:18;7.03;100.20
14154;DHT22;7157;53.144;7.570;2023-04-12T21:45:24;6.85;100.32
14154;DHT22;7157;53.144;7.570;2023-04-12T21:55:29;6.74;100.18
14154;DHT22;7157;53.144;7.570;2023-04-12T22:05:31;6.73;100.13
14154;DHT22;7157;53.144;7.570;2023-04-12T22:15:37;6.54;100.46
14154;DHT22;7157;53.144;7.570;2023-04-12T22:25:40;6.48;100.17
14154;DHT22;7157;53.144;7.570;2023-04-12T22:35:45;6.34;99.32
14154;DHT22;7157;53.144;7.570;2023-04-12T22:45:48;6.36;98.29
14154;DHT22;7157;53.144;7.570;2023-04-12T22:55:56;6.30;97.68
14154;DHT22;7157;53.144;7.570;2023-04-12T23:05:58;6.07;98.50
14154;DHT22;7157;53.144;7.570;2023-04-12T23:16:03;5.92;98.68
14154;DHT22;7157;53.144;7.570;2023-04-12T23:26:06;5.77;98.74
14154;DHT22;7157;53.144;7.570;2023-04-12T23:36:12;5.54;98.83
14154;DHT22;7157;53.144;7.570;2023-04-12T23:46:14;5.63;98.44
14154;DHT22;7157;53.144;7.570;2023-04-12T23:56:19;5.61;98.08
